Nearby METAR Reports

 

K1V4 - St. Johnsbury, Vermont, USA
Distance from station: NNW 15mi, 24km
Updated: 01/25/2022 12:54pm

 
Temperature: 28°F , -2°C
Dew Point: 21°F , -6°C
Humidity: 74%
Barometer: 29.82 inHg , 1009.8 hPa
2022/01/25 17:54 K1V4 251754Z AUTO M02/M06 A2982 RMK AO1 SLP114 T10171056 11017 21094 58005
KHIE - Whitefield, New Hampshire, USA
Distance from station: ENE 21mi, 34km
Updated: 01/25/2022 12:52pm
Overcast
Overcast
 Wind from SW
Wind: SW 6 mph , 9 km/h
Temperature: 28°F , -2°C
Wind Chill: 21°F , -6°C
Dew Point: 19°F , -7°C
Humidity: 69%
Barometer: 29.81 inHg , 1009.5 hPa
Clouds: Overcast
Visibility: 10 miles , 16 km
Cloud details: Few Clouds 2400 ft
Mostly cloudy 4200 ft
Overcast 7500 ft
2022/01/25 17:52 KHIE 251752Z AUTO 22005KT 10SM FEW024 BKN042 OVC075 M02/M07 A2981 RMK AO2 SLP114 60000 T10221072 11022 21094 56006 TSNO
KCDA - Lyndonville, Vermont, USA
Distance from station: NNW 25mi, 40km
Updated: 01/25/2022 12:55pm
Overcast
Overcast
 Wind from E
Wind: E 5 mph , 7 km/h
Temperature: 25°F , -4°C
Wind Chill: 19°F , -7°C
Dew Point: 19°F , -7°C
Humidity: 80%
Barometer: 29.82 inHg , 1009.8 hPa
Clouds: Overcast
Visibility: 10 miles , 16 km
Cloud details: Partly cloudy 2800 ft
Mostly cloudy 3600 ft
Overcast 4400 ft
2022/01/25 17:55 KCDA 251755Z AUTO 10004KT 10SM UP SCT028 BKN036 OVC044 M04/M07 A2982 RMK AO2 T10401071 11040 21106
 
K1P1 - Plymouth, New Hampshire, USA
Distance from station: SSE 31mi, 49km
Updated: 01/25/2022 12:55pm
Mostly cloudy
Mostly cloudy
 Wind from calm
Wind: Calm
Temperature: 30°F , -1°C
Dew Point: 21°F , -6°C
Humidity: 69%
Barometer: 29.84 inHg , 1010.5 hPa
Clouds: Mostly cloudy
Visibility: 10 miles , 16 km
Cloud details: Partly cloudy 4500 ft
Mostly cloudy 5000 ft
2022/01/25 17:55 K1P1 251755Z AUTO 00000KT 10SM SCT045 BKN050 M01/M06 A2984 RMK AO2 T10111056 11010 21078
KMWN - Mount Washington, New Hampshire, USA
Distance from station: E 31mi, 49km
Updated: 01/25/2022 11:51am
Freezing fog, Blowing, Snow, Overcast
Freezing fog, Blowing, Snow, Overcast
 Wind from WNW
Wind: WNW 48 mph , 78 km/h, Gust: 58 mph , 93 km/h
Temperature: 7°F , -14°C
Wind Chill: -21°F , -29°C
Dew Point: 7°F , -14°C
Humidity: 100%
Summary: Freezing fog, Blowing, Snow
Clouds: Overcast
Visibility: 0 miles , 0 km
Cloud details: Overcast 0 ft
2022/01/25 16:51 KMWN 251651Z 30042G50KT 0SM FZFG BLSN VV000 M14/M14 RMK VRY LGT ICG
KMPV - Montpelier/Barre, Vermont, USA
Distance from station: W 32mi, 52km
Updated: 01/25/2022 12:51pm
Mostly cloudy
Mostly cloudy
 Wind from W
Wind: W 14 mph , 22 km/h, Gust: 23 mph , 37 km/h
Temperature: 30°F , -1°C
Wind Chill: 19°F , -7°C
Dew Point: 16°F , -9°C
Humidity: 55%
Barometer: 29.85 inHg , 1010.8 hPa
Clouds: Mostly cloudy
Visibility: 10 miles , 16 km
Cloud details: Few Clouds 2900 ft
Partly cloudy 4000 ft
Mostly cloudy 6500 ft
2022/01/25 17:51 KMPV 251751Z AUTO 26012G20KT 10SM FEW029 SCT040 BKN065 M01/M09 A2985 RMK AO2 SLP128 60000 T10111089 11011 21100 58001
 
KMVL - Morrisville, Vermont, USA
Distance from station: WNW 41mi, 66km
Updated: 01/25/2022 12:54pm
Light snow, Overcast
Light snow, Overcast
 Wind from S
Wind: S 7 mph , 11 km/h
Temperature: 27°F , -3°C
Wind Chill: 19°F , -7°C
Dew Point: 21°F , -6°C
Humidity: 80%
Barometer: 29.84 inHg , 1010.5 hPa
Summary: Light Snow
Clouds: Overcast
Visibility: 5 miles , 8 km
Cloud details: Mostly cloudy 3500 ft
Overcast 4200 ft
2022/01/25 17:54 KMVL 251754Z AUTO 17006KT 5SM -SN BKN035 OVC042 M03/M06 A2984 RMK AO2 SLP119 P0000 60000 T10281056 11028 21111 58004
KBML - Berlin, New Hampshire, USA
Distance from station: NE 44mi, 71km
Updated: 01/25/2022 12:52pm
Overcast
Overcast
 Wind from calm
Wind: Calm
Temperature: 27°F , -3°C
Dew Point: 18°F , -8°C
Humidity: 69%
Barometer: 29.79 inHg , 1008.8 hPa
Clouds: Overcast
Visibility: 10 miles , 16 km
Cloud details: Overcast 2200 ft
2022/01/25 17:52 KBML 251752Z AUTO 00000KT 10SM OVC022 M03/M08 A2979 RMK AO2 SLP110 60000 T10281083 11022 21100 58006 TSNO
KLEB - Lebanon, New Hampshire, USA
Distance from station: SSW 44mi, 71km
Updated: 01/25/2022 12:53pm
Mostly cloudy
Mostly cloudy
 Wind from WSW
Wind: WSW 9 mph , 15 km/h
Temperature: 34°F , 1°C
Wind Chill: 27°F , -3°C
Dew Point: 14°F , -10°C
Humidity: 44%
Barometer: 29.85 inHg , 1010.8 hPa
Clouds: Mostly cloudy
Visibility: 10 miles , 16 km
Cloud details: Mostly cloudy 4900 ft
2022/01/25 17:53 KLEB 251753Z 24008KT 10SM BKN049 01/M10 A2985 RMK AO2 SLP120 60000 T00061100 10006 21061 58002
 
KEFK - Newport State, Vermont, USA
Distance from station: NNW 49mi, 79km
Updated: 01/25/2022 12:55pm
Overcast
Overcast
 Wind from NNW
Wind: NNW 3 mph , 6 km/h
Temperature: 25°F , -4°C
Dew Point: 18°F , -8°C
Humidity: 74%
Barometer: 29.82 inHg , 1009.8 hPa
Clouds: Overcast
Visibility: 10 miles , 16 km
Cloud details: Mostly cloudy 2400 ft
Overcast 3300 ft
2022/01/25 17:55 KEFK 251755Z AUTO 34003KT 10SM BKN024 OVC033 M04/M08 A2982 RMK AO2 T10371082 11021 21138
KIZG - Fryeburg, Maine, USA
Distance from station: ESE 50mi, 81km
Updated: 01/25/2022 12:54pm
Overcast
Overcast
 Wind from calm
Wind: Calm
Temperature: 28°F , -2°C
Dew Point: 19°F , -7°C
Humidity: 69%
Barometer: 29.84 inHg , 1010.5 hPa
Clouds: Overcast
Visibility: 10 miles , 16 km
Cloud details: Overcast 4800 ft
2022/01/25 17:54 KIZG 251754Z AUTO 00000KT 10SM OVC048 M02/M07 A2984 RMK AO2 SLP113 60000 T10171067 11017 21083 56009
KLCI - Laconia Muni, New Hampshire, USA
Distance from station: SSE 51mi, 82km
Updated: 01/25/2022 12:56pm
Mostly cloudy
Mostly cloudy
 Wind from SW
Wind: SW 8 mph , 13 km/h
Temperature: 32°F , 0°C
Wind Chill: 25°F , -4°C
Dew Point: 25°F , -4°C
Humidity: 75%
Barometer: 29.85 inHg , 1010.8 hPa
Clouds: Mostly cloudy
Visibility: 10 miles , 16 km
Cloud details: Mostly cloudy 3000 ft
Mostly cloudy 3600 ft
Mostly cloudy 4500 ft
2022/01/25 17:56 KLCI 251756Z AUTO 22007KT 10SM BKN030 BKN036 BKN045 00/M04 A2985 RMK AO2 SLP116 60000 T00001044 10011 21067 56008 FZRANO
 
K6B0 - Middlebury, Vermont, USA
Distance from station: WSW 61mi, 98km
Updated: 01/25/2022 12:55pm
Clear
Clear
 Wind from SW
Wind: SW 3 mph , 6 km/h
Temperature: 30°F , -1°C
Dew Point: 16°F , -9°C
Humidity: 55%
Barometer: 29.89 inHg , 1012.2 hPa
Clouds: Clear
Visibility: 10 miles , 16 km
2022/01/25 17:55 K6B0 251755Z AUTO 23003KT 10SM CLR M01/M09 A2989 RMK AO2 T10111090 11011 21088
KBTV - Burlington, Vermont, USA
Distance from station: WNW 63mi, 102km
Updated: 01/25/2022 1:01pm
Light snow, Mostly cloudy
Light snow, Mostly cloudy
 Wind from W
Wind: W 8 mph , 13 km/h
Temperature: 25°F , -4°C
Wind Chill: 16°F , -9°C
Dew Point: 19°F , -7°C
Humidity: 80%
Barometer: 29.89 inHg , 1012.2 hPa
Summary: Light Snow
Clouds: Mostly cloudy
Visibility: 3 miles , 5 km
Cloud details: Few Clouds 900 ft
Mostly cloudy 2300 ft
Mostly cloudy 7000 ft
2022/01/25 18:01 KBTV 251801Z 26007KT 3SM R15/5500VP6000FT -SN FEW009 BKN023 BKN070 M04/M07 A2989 RMK AO2 P0000 T10441072
KVSF - Springfield, Vermont, USA
Distance from station: SSW 67mi, 107km
Updated: 01/25/2022 12:54pm
Overcast
Overcast
 Wind from W
Wind: W 10 mph , 17 km/h, Gust: 18 mph , 30 km/h
Temperature: 34°F , 1°C
Wind Chill: 26°F , -3°C
Dew Point: 16°F , -9°C
Humidity: 48%
Barometer: 29.88 inHg , 1011.9 hPa
Clouds: Overcast
Visibility: 10 miles , 16 km
Cloud details: Mostly cloudy 4700 ft
Overcast 6000 ft
2022/01/25 17:54 KVSF 251754Z AUTO 27009G16KT 10SM BKN047 OVC060 01/M09 A2988 RMK AO2 SLP127 60000 T00061094 10011 21061 53002
 
KRUT - Rutland State, Vermont, USA
Distance from station: SW 70mi, 113km
Updated: 01/25/2022 12:56pm
Overcast
Overcast
 Wind from W
Wind: W 9 mph , 15 km/h
Temperature: 32°F , 0°C
Wind Chill: 24°F , -4°C
Dew Point: 18°F , -8°C
Humidity: 55%
Barometer: 29.87 inHg , 1011.5 hPa
Clouds: Overcast
Visibility: 10 miles , 16 km
Cloud details: Mostly cloudy 3500 ft
Mostly cloudy 4900 ft
Overcast 7500 ft
2022/01/25 17:56 KRUT 251756Z AUTO 28008KT 240V310 10SM BKN035 BKN049 OVC075 00/M08 A2987 RMK AO2 SLP121 60000 T00001078 10006 21056 55000 FZRANO $
CWFQ - Frelighsburg, Quebec, Canada
Distance from station: NW 72mi, 116km
Updated: 01/25/2022 12:00pm

 Wind from SW
Wind: SW 2 mph , 4 km/h
Temperature: 23°F , -5°C
Dew Point: 16°F , -9°C
Humidity: 74%
2022/01/25 17:00 CWFQ 251700Z AUTO 22002KT M05/M09 RMK AO1 SOG 26 0004 SLP116 T10521086
KCON - Concord, New Hampshire, USA
Distance from station: SSE 73mi, 117km
Updated: 01/25/2022 12:51pm
Overcast
Overcast
 Wind from SW
Wind: SW 9 mph , 15 km/h
Temperature: 34°F , 1°C
Wind Chill: 27°F , -3°C
Dew Point: 23°F , -5°C
Humidity: 65%
Barometer: 29.87 inHg , 1011.5 hPa
Clouds: Overcast
Visibility: 10 miles , 16 km
Cloud details: Partly cloudy 2800 ft
Overcast 3800 ft
2022/01/25 17:51 KCON 251751Z AUTO 23008KT 210V280 10SM SCT028 OVC038 01/M05 A2987 RMK AO2 SLP120 60000 T00111050 10011 21050 58005
 
CWTT - Lac Memphremagog, Quebec, Canada
Distance from station: N 74mi, 119km
Updated: 01/25/2022 12:00pm

 Wind from WSW
Wind: WSW 1 mph , 2 km/h
Temperature: 23°F , -5°C
Dew Point: 14°F , -10°C
Humidity: 68%
2022/01/25 17:00 CWTT 251700Z AUTO 24001KT M05/M10 RMK AO1 T10471099
KFSO - Highgate, Vermont, USA
Distance from station: NW 77mi, 123km
Updated: 01/25/2022 12:55pm
Light snow, Overcast
Light snow, Overcast
 Wind from calm
Wind: Calm
Temperature: 18°F , -8°C
Dew Point: 12°F , -11°C
Humidity: 79%
Barometer: 29.91 inHg , 1012.9 hPa
Summary: Light Snow
Clouds: Overcast
Visibility: 1 1/4 miles , 2 km
Cloud details: Overcast 1300 ft
2022/01/25 17:55 KFSO 251755Z AUTO 00000KT 1 1/4SM -SN OVC013 M08/M11 A2991 RMK AO2 T10771115 11075 21141